Nearby METAR Reports

 

KMSY - New Orleans,Louisiana, USA
Distance from station: E 11.7mi, 18.8km
Updated: Fri, 18-Jan-2019 11:53pm CST
Overcast
Overcast
 Wind from S
Wind: S 12 mph , 19 km/h
Temperature: 64°F , 18°C
Dew Point: 64°F , 18°C
Humidity: 100%
Barometer: 29.92 inHg , 1013.2 hPa
Clouds: Overcast
Visibility: 8 miles , 13 km
Cloud details: Few Clouds 9000 ft
Overcast 13000 ft
2019/01/19 05:53 KMSY 190553Z 18010KT 8SM FEW090 OVC130 18/18 A2992 RMK AO2 SLP136 T01830178 10194 20172 402330161 55014
KAPS - Reserve,Louisiana, USA
Distance from station: W 8.4mi, 13.5km
Updated: Fri, 18-Jan-2019 11:35pm CST
Overcast
Overcast
 Wind from SSW
Wind: SSW 12 mph , 19 km/h
Temperature: 68°F , 20°C
Dew Point: 64°F , 18°C
Humidity: 88%
Barometer: 29.92 inHg , 1013.2 hPa
Clouds: Overcast
Visibility: 10 miles , 16 km
Cloud details: Overcast 1200 ft
2019/01/19 05:35 KAPS 190535Z AUTO 21010KT 10SM OVC012 20/18 A2992 RMK AO2 T01960176
 
KHDC - Hammond,Louisiana, USA
Distance from station: N 31.5mi, 50.6km
Updated: Fri, 18-Jan-2019 11:55pm CST
Light drizzle, Overcast
Light drizzle, Overcast
 Wind from SSW
Wind: SSW 6 mph , 9 km/h
Temperature: 63°F , 17°C
Dew Point: 63°F , 17°C
Humidity: 100%
Barometer: 29.92 inHg , 1013.2 hPa
Summary: Light Drizzle
Clouds: Overcast
Visibility: 10 miles , 16 km
Cloud details: Overcast 600 ft
2019/01/19 05:55 KHDC 190555Z AUTO 21005KT 10SM -DZ OVC006 17/17 A2992 RMK AO2
KHUM - Houma,Louisiana, USA
Distance from station: SW 36.54mi, 58.8km
Updated: Fri, 18-Jan-2019 11:35pm CST
Clear
Clear
 Wind from S
Wind: S 10 mph , 17 km/h
Temperature: 66°F , 19°C
Dew Point: 64°F , 18°C
Humidity: 94%
Barometer: 29.93 inHg , 1013.5 hPa
Clouds: Clear
Visibility: 7 miles , 11 km
2019/01/19 05:35 KHUM 190535Z AUTO 18009KT 7SM CLR 19/18 A2993 RMK AO2 T01880178